createdAt,value
2022-09-12T00:01:26.018Z,19.00
2022-09-12T00:04:12.040Z,19.00
2022-09-12T00:06:57.669Z,18.90
2022-09-12T00:09:43.308Z,18.90
2022-09-12T00:12:28.964Z,18.80
2022-09-12T00:15:14.576Z,18.90
2022-09-12T00:18:00.079Z,18.90
2022-09-12T00:20:47.441Z,18.80
2022-09-12T00:23:33.738Z,18.90
2022-09-12T00:26:20.574Z,18.80
2022-09-12T00:29:06.159Z,18.80
2022-09-12T00:31:51.664Z,18.80
2022-09-12T00:34:37.293Z,18.80
2022-09-12T00:37:22.740Z,18.70
2022-09-12T00:40:08.577Z,18.60
2022-09-12T00:42:54.531Z,18.50
2022-09-12T00:45:42.503Z,18.50
2022-09-12T00:48:35.237Z,18.40
2022-09-12T00:51:21.405Z,18.50
2022-09-12T00:54:12.652Z,18.40
2022-09-12T00:57:04.620Z,18.50
2022-09-12T00:59:59.144Z,18.50
2022-09-12T01:02:50.245Z,18.40
2022-09-12T01:05:40.227Z,18.30
2022-09-12T01:08:27.285Z,18.20
2022-09-12T01:11:13.425Z,18.30
2022-09-12T01:14:00.136Z,18.30
2022-09-12T01:16:47.245Z,18.30
2022-09-12T01:20:07.391Z,18.20
2022-09-12T01:22:56.160Z,18.20
2022-09-12T01:25:50.792Z,18.20
2022-09-12T01:29:04.013Z,18.10
2022-09-12T01:32:03.895Z,18.10
2022-09-12T01:35:22.925Z,18.10
2022-09-12T01:38:30.137Z,18.10
2022-09-12T01:41:24.440Z,18.00
2022-09-12T01:44:51.678Z,18.00
2022-09-12T01:47:41.721Z,18.10
2022-09-12T01:50:39.813Z,18.00
2022-09-12T01:53:36.760Z,18.00
2022-09-12T01:56:28.699Z,17.90
2022-09-12T01:59:25.217Z,17.90
2022-09-12T02:02:20.283Z,17.90
2022-09-12T02:05:17.589Z,17.90
2022-09-12T02:08:17.550Z,17.90
2022-09-12T02:11:09.949Z,17.70
2022-09-12T02:14:16.745Z,17.60
2022-09-12T02:17:09.032Z,17.60
2022-09-12T02:20:14.589Z,17.50
2022-09-12T02:23:10.974Z,17.40
2022-09-12T02:26:01.660Z,17.50
2022-09-12T02:28:47.570Z,19.90
2022-09-12T02:31:40.597Z,17.50
2022-09-12T02:34:45.989Z,17.50
2022-09-12T02:38:05.262Z,17.50
2022-09-12T02:40:51.189Z,17.40
2022-09-12T02:43:37.910Z,17.50
2022-09-12T02:46:40.126Z,17.50
2022-09-12T02:49:25.626Z,17.50
2022-09-12T02:52:11.174Z,17.40
2022-09-12T02:54:58.320Z,17.30
2022-09-12T02:57:43.794Z,17.40
2022-09-12T03:00:34.599Z,17.40
2022-09-12T03:03:29.253Z,17.40
2022-09-12T03:06:39.994Z,17.20
2022-09-12T03:09:37.132Z,17.10
2022-09-12T03:12:44.037Z,17.20
2022-09-12T03:15:41.788Z,17.30
2022-09-12T03:19:09.167Z,17.10
2022-09-12T03:22:28.731Z,17.10
2022-09-12T03:25:17.552Z,17.00
2022-09-12T03:28:08.226Z,16.90
2022-09-12T03:30:55.955Z,16.90
2022-09-12T03:33:42.370Z,16.90
2022-09-12T03:36:29.738Z,16.90
2022-09-12T03:39:15.464Z,16.80
2022-09-12T03:42:01.010Z,16.90
2022-09-12T03:44:46.432Z,16.80
2022-09-12T03:47:33.073Z,16.80
2022-09-12T03:50:18.657Z,16.70
2022-09-12T03:53:04.528Z,16.70
2022-09-12T03:55:50.059Z,16.50
2022-09-12T03:58:36.361Z,16.50
2022-09-12T04:01:22.210Z,16.50
2022-09-12T04:04:09.140Z,16.60
2022-09-12T04:06:55.232Z,16.60
2022-09-12T04:09:40.990Z,16.70
2022-09-12T04:12:26.356Z,16.70
2022-09-12T04:15:11.826Z,16.70
2022-09-12T04:17:57.218Z,16.80
2022-09-12T04:20:42.704Z,16.70
2022-09-12T04:23:28.544Z,16.60
2022-09-12T04:26:14.773Z,16.60
2022-09-12T04:29:00.455Z,16.60
2022-09-12T04:31:46.054Z,16.60
2022-09-12T04:34:32.596Z,16.40
2022-09-12T04:37:18.512Z,16.40
2022-09-12T04:40:04.334Z,16.40
2022-09-12T04:42:49.918Z,16.40
2022-09-12T04:45:35.722Z,16.40
2022-09-12T04:48:21.114Z,16.40
2022-09-12T04:51:15.345Z,16.30
2022-09-12T04:54:06.923Z,16.40
2022-09-12T04:56:52.720Z,16.30
2022-09-12T04:59:38.717Z,16.30
2022-09-12T05:02:24.500Z,16.40
2022-09-12T05:05:10.482Z,16.50
2022-09-12T05:07:56.225Z,16.40
2022-09-12T05:10:42.214Z,16.20
2022-09-12T05:13:27.697Z,16.20
2022-09-12T05:16:17.909Z,16.10
2022-09-12T05:19:03.528Z,16.40
2022-09-12T05:21:48.940Z,16.70
2022-09-12T05:24:35.248Z,16.90
2022-09-12T05:27:20.913Z,17.00
2022-09-12T05:30:07.634Z,17.00
2022-09-12T05:32:53.078Z,17.10
2022-09-12T05:35:38.968Z,16.20
2022-09-12T05:38:25.694Z,17.30
2022-09-12T05:41:18.210Z,17.30
2022-09-12T05:44:07.313Z,17.40
2022-09-12T05:46:53.694Z,17.30
2022-09-12T05:49:39.154Z,17.40
2022-09-12T05:52:24.549Z,17.50
2022-09-12T05:55:10.055Z,17.40
2022-09-12T05:57:55.818Z,17.50
2022-09-12T06:00:41.420Z,17.50
2022-09-12T06:03:27.171Z,17.50
2022-09-12T06:06:14.252Z,17.50
2022-09-12T06:09:01.338Z,17.60
2022-09-12T06:11:47.209Z,17.70
2022-09-12T06:14:33.313Z,17.70
2022-09-12T06:17:19.104Z,17.70
2022-09-12T06:20:05.288Z,17.70
2022-09-12T06:22:53.666Z,17.80
2022-09-12T06:25:45.703Z,18.00
2022-09-12T06:28:32.650Z,18.00
2022-09-12T06:31:21.121Z,18.00
2022-09-12T06:34:08.904Z,18.10
2022-09-12T06:36:54.696Z,18.10
2022-09-12T06:39:40.330Z,18.20
2022-09-12T06:42:25.717Z,18.20
2022-09-12T06:45:16.818Z,18.40
2022-09-12T06:48:02.682Z,18.50
2022-09-12T06:51:02.578Z,18.40
2022-09-12T06:53:49.543Z,18.40
2022-09-12T06:56:35.314Z,18.40
2022-09-12T06:59:21.050Z,18.60
2022-09-12T07:02:07.339Z,18.60
2022-09-12T07:04:52.937Z,18.60
2022-09-12T07:07:38.403Z,18.90
2022-09-12T07:10:24.199Z,19.10
2022-09-12T07:13:09.766Z,19.30
2022-09-12T07:15:55.499Z,19.30
2022-09-12T07:18:47.992Z,19.50
2022-09-12T07:21:40.181Z,19.60
2022-09-12T07:24:26.167Z,19.80
2022-09-12T07:27:11.874Z,20.20
2022-09-12T07:29:57.605Z,20.60
2022-09-12T07:32:43.198Z,20.90
2022-09-12T07:35:28.611Z,20.80
2022-09-12T07:38:14.129Z,20.80
2022-09-12T07:40:59.589Z,21.00
2022-09-12T07:43:45.556Z,21.00
2022-09-12T07:46:32.356Z,21.20
2022-09-12T07:49:18.124Z,21.30
2022-09-12T07:52:03.615Z,21.30
2022-09-12T07:54:49.102Z,21.50
2022-09-12T07:57:34.631Z,21.60
2022-09-12T08:00:20.274Z,21.50
2022-09-12T08:03:07.304Z,21.60
2022-09-12T08:05:53.037Z,21.60
2022-09-12T08:08:38.884Z,21.70
2022-09-12T08:11:27.811Z,21.80
2022-09-12T08:14:13.464Z,21.80
2022-09-12T08:16:58.963Z,21.90
2022-09-12T08:19:44.949Z,22.00
2022-09-12T08:22:31.408Z,22.00
2022-09-12T08:25:16.937Z,22.00
2022-09-12T08:28:02.930Z,22.00
2022-09-12T08:30:48.785Z,21.90
2022-09-12T08:33:35.103Z,22.00
2022-09-12T08:36:23.671Z,22.00
2022-09-12T08:39:12.223Z,22.00
2022-09-12T08:42:04.175Z,22.10
2022-09-12T08:45:17.999Z,22.10
2022-09-12T08:48:06.013Z,22.20
2022-09-12T08:50:52.002Z,22.20
2022-09-12T08:53:38.382Z,22.20
2022-09-12T08:56:31.472Z,22.30
2022-09-12T08:59:17.378Z,22.30
2022-09-12T09:02:04.602Z,22.30
2022-09-12T09:05:02.040Z,22.30
2022-09-12T09:08:00.352Z,22.30
2022-09-12T09:10:52.599Z,22.30
2022-09-12T09:14:05.458Z,22.40
2022-09-12T09:16:53.879Z,22.40
2022-09-12T09:19:50.812Z,22.40
2022-09-12T09:22:42.914Z,22.50
2022-09-12T09:25:49.517Z,22.50
2022-09-12T09:28:44.148Z,22.50
2022-09-12T09:31:35.733Z,22.50
2022-09-12T09:34:21.824Z,22.60
2022-09-12T09:37:07.693Z,22.60
2022-09-12T09:39:53.221Z,22.60
2022-09-12T09:42:44.929Z,22.60
2022-09-12T09:45:30.990Z,22.60
2022-09-12T09:48:18.536Z,22.60
2022-09-12T09:51:09.389Z,22.50
2022-09-12T09:54:01.484Z,22.50
2022-09-12T09:56:47.580Z,22.60
2022-09-12T09:59:34.388Z,22.60
2022-09-12T10:02:24.429Z,22.60
2022-09-12T10:05:17.172Z,22.60
2022-09-12T10:08:04.837Z,22.60
2022-09-12T10:11:17.503Z,22.60
2022-09-12T10:14:04.616Z,22.60
2022-09-12T10:16:54.673Z,22.70
2022-09-12T10:19:40.710Z,22.70
2022-09-12T10:22:30.073Z,22.80
2022-09-12T10:25:19.344Z,22.80
2022-09-12T10:28:04.875Z,22.90
2022-09-12T10:30:56.096Z,22.90
2022-09-12T10:33:52.723Z,22.90
2022-09-12T10:36:40.486Z,22.90
2022-09-12T10:39:26.889Z,22.90
2022-09-12T10:42:17.512Z,22.90
2022-09-12T10:45:17.522Z,23.00
2022-09-12T10:48:32.734Z,23.00
2022-09-12T10:51:24.596Z,23.00
2022-09-12T10:54:13.122Z,23.10
2022-09-12T10:57:01.284Z,23.10
2022-09-12T11:00:27.948Z,23.10
2022-09-12T11:03:30.844Z,23.10
2022-09-12T11:06:22.208Z,23.20
2022-09-12T11:09:21.991Z,23.30
2022-09-12T11:12:16.953Z,23.40
2022-09-12T11:15:18.965Z,23.40
2022-09-12T11:18:43.544Z,23.40
2022-09-12T11:21:50.938Z,23.50
2022-09-12T11:25:05.190Z,23.60
2022-09-12T11:28:25.276Z,23.80
2022-09-12T11:31:49.529Z,23.90
2022-09-12T11:34:56.666Z,24.00
2022-09-12T11:37:45.266Z,24.10
2022-09-12T11:40:59.571Z,24.10
2022-09-12T11:44:01.160Z,24.20
2022-09-12T11:46:51.539Z,24.20
2022-09-12T11:49:40.565Z,24.20
2022-09-12T11:52:34.108Z,24.20
2022-09-12T11:55:47.126Z,24.40
2022-09-12T11:58:32.713Z,24.50
2022-09-12T12:01:42.883Z,24.50
2022-09-12T12:04:59.776Z,24.50
2022-09-12T12:07:52.520Z,24.40
2022-09-12T12:10:55.914Z,24.50
2022-09-12T12:13:50.627Z,24.50
2022-09-12T12:16:41.154Z,24.60
2022-09-12T12:19:27.004Z,24.70
2022-09-12T12:22:23.214Z,24.80
2022-09-12T12:25:12.285Z,24.80
2022-09-12T12:28:01.889Z,24.80
2022-09-12T12:30:53.806Z,24.90
2022-09-12T12:33:39.202Z,25.00
2022-09-12T12:36:40.284Z,25.10
2022-09-12T12:39:32.200Z,25.10
2022-09-12T12:42:33.290Z,25.10
2022-09-12T12:45:18.837Z,25.10
2022-09-12T12:48:15.240Z,25.20
2022-09-12T12:51:38.018Z,25.30
2022-09-12T12:54:48.896Z,25.70
2022-09-12T12:57:51.440Z,25.80
2022-09-12T13:00:40.885Z,25.80
2022-09-12T13:03:32.769Z,25.90
2022-09-12T13:06:38.298Z,25.80
2022-09-12T13:09:27.537Z,25.70
2022-09-12T13:12:28.072Z,25.70
2022-09-12T13:15:36.165Z,25.80
2022-09-12T13:18:41.015Z,26.00
2022-09-12T13:21:26.730Z,26.10
2022-09-12T13:24:18.886Z,26.30
2022-09-12T13:27:20.294Z,26.50
2022-09-12T13:30:13.622Z,26.50
2022-09-12T13:33:15.063Z,26.50
2022-09-12T13:36:09.842Z,26.70
2022-09-12T13:39:20.275Z,26.90
2022-09-12T13:42:28.964Z,27.10
2022-09-12T13:45:24.879Z,27.30
2022-09-12T13:48:18.174Z,27.20
2022-09-12T13:51:06.064Z,27.00
2022-09-12T13:53:54.473Z,26.90
2022-09-12T13:56:50.071Z,26.90
2022-09-12T13:59:44.278Z,26.80
2022-09-12T14:02:31.417Z,26.80
2022-09-12T14:05:24.197Z,26.80
2022-09-12T14:08:14.453Z,26.70
2022-09-12T14:11:00.648Z,26.60
2022-09-12T14:13:46.443Z,26.60
2022-09-12T14:16:39.665Z,26.50
2022-09-12T14:19:26.647Z,26.50
2022-09-12T14:22:17.973Z,26.50
2022-09-12T14:25:04.428Z,26.50
2022-09-12T14:27:55.578Z,26.60
2022-09-12T14:30:41.708Z,26.70
2022-09-12T14:33:27.145Z,26.60
2022-09-12T14:36:32.209Z,26.60
2022-09-12T14:39:38.682Z,26.50
2022-09-12T14:42:30.399Z,26.50
2022-09-12T14:45:27.023Z,26.50
2022-09-12T14:48:19.229Z,26.50
2022-09-12T14:51:05.791Z,26.70
2022-09-12T14:53:51.465Z,26.80
2022-09-12T14:56:43.351Z,26.90
2022-09-12T14:59:33.305Z,26.90
2022-09-12T15:02:26.222Z,26.80
2022-09-12T15:05:11.901Z,26.70
2022-09-12T15:07:59.884Z,26.80
2022-09-12T15:10:45.284Z,26.70
2022-09-12T15:13:39.924Z,26.90
2022-09-12T15:16:25.646Z,26.80
2022-09-12T15:19:10.993Z,26.80
2022-09-12T15:21:57.002Z,26.70
2022-09-12T15:24:42.424Z,26.80
2022-09-12T15:27:27.944Z,26.60
2022-09-12T15:30:14.081Z,26.70
2022-09-12T15:33:00.150Z,26.70
2022-09-12T15:35:46.133Z,26.70
2022-09-12T15:38:31.924Z,26.70
2022-09-12T15:41:18.725Z,26.60
2022-09-12T15:44:12.349Z,26.40
2022-09-12T15:46:58.174Z,26.30
2022-09-12T15:49:43.492Z,26.20
2022-09-12T15:52:28.990Z,26.20
2022-09-12T15:55:19.188Z,26.10
2022-09-12T15:58:07.155Z,26.10
2022-09-12T16:00:52.795Z,26.10
2022-09-12T16:03:38.516Z,26.10
2022-09-12T16:06:24.512Z,26.10
2022-09-12T16:09:12.607Z,26.10
2022-09-12T16:12:02.060Z,26.10
2022-09-12T16:14:47.752Z,26.00
2022-09-12T16:17:33.345Z,25.90
2022-09-12T16:20:19.744Z,25.80
2022-09-12T16:23:05.468Z,25.80
2022-09-12T16:25:58.913Z,25.60
2022-09-12T16:28:45.104Z,25.60
2022-09-12T16:31:30.980Z,25.50
2022-09-12T16:34:16.453Z,25.40
2022-09-12T16:37:02.431Z,25.40
2022-09-12T16:39:49.050Z,25.40
2022-09-12T16:42:34.991Z,25.30
2022-09-12T16:45:20.925Z,25.20
2022-09-12T16:48:06.306Z,25.20
2022-09-12T16:50:58.777Z,25.20
2022-09-12T16:53:44.662Z,25.20
2022-09-12T16:56:30.582Z,25.20
2022-09-12T16:59:16.801Z,25.20
2022-09-12T17:02:03.405Z,25.20
2022-09-12T17:04:49.048Z,25.10
2022-09-12T17:07:35.032Z,25.10
2022-09-12T17:10:20.913Z,25.00
2022-09-12T17:13:06.319Z,25.00
2022-09-12T17:15:51.844Z,25.00
2022-09-12T17:18:38.985Z,24.90
2022-09-12T17:21:24.772Z,24.90
2022-09-12T17:24:10.964Z,24.90
2022-09-12T17:26:57.196Z,24.80
2022-09-12T17:29:42.653Z,24.80
2022-09-12T17:32:28.231Z,24.90
2022-09-12T17:35:13.977Z,24.90
2022-09-12T17:37:59.770Z,24.90
2022-09-12T17:40:58.923Z,24.80
2022-09-12T17:43:54.376Z,24.80
2022-09-12T17:46:40.694Z,24.80
2022-09-12T17:49:26.548Z,24.80
2022-09-12T17:52:12.383Z,24.70
2022-09-12T17:54:57.786Z,24.70
2022-09-12T17:57:45.367Z,24.70
2022-09-12T18:00:49.936Z,24.60
2022-09-12T18:03:35.353Z,24.60
2022-09-12T18:06:21.368Z,24.60
2022-09-12T18:09:09.640Z,24.60
2022-09-12T18:11:56.361Z,24.60
2022-09-12T18:14:42.596Z,24.50
2022-09-12T18:17:28.469Z,24.50
2022-09-12T18:20:13.958Z,24.60
2022-09-12T18:22:59.839Z,24.70
2022-09-12T18:25:45.254Z,24.80
2022-09-12T18:28:35.702Z,24.80
2022-09-12T18:31:24.095Z,24.90
2022-09-12T18:34:14.441Z,24.80
2022-09-12T18:37:01.930Z,24.70
2022-09-12T18:39:47.655Z,24.70
2022-09-12T18:42:33.211Z,24.50
2022-09-12T18:45:18.649Z,24.50
2022-09-12T18:48:06.172Z,24.40
2022-09-12T18:50:51.689Z,24.30
2022-09-12T18:53:37.624Z,24.30
2022-09-12T18:56:25.881Z,24.20
2022-09-12T18:59:14.122Z,24.20
2022-09-12T19:01:59.702Z,24.10
2022-09-12T19:04:45.083Z,24.10
2022-09-12T19:07:31.651Z,24.00
2022-09-12T19:10:17.445Z,24.10
2022-09-12T19:13:03.573Z,24.10
2022-09-12T19:15:49.544Z,24.00
2022-09-12T19:18:36.962Z,24.00
2022-09-12T19:21:27.545Z,24.10
2022-09-12T19:24:14.471Z,24.00
2022-09-12T19:27:00.393Z,24.10
2022-09-12T19:29:46.160Z,24.10
2022-09-12T19:32:32.034Z,24.10
2022-09-12T19:35:17.767Z,24.20
2022-09-12T19:38:03.341Z,24.20
2022-09-12T19:41:04.328Z,24.00
2022-09-12T19:43:49.814Z,23.90
2022-09-12T19:46:35.325Z,23.90
2022-09-12T19:49:20.834Z,23.90
2022-09-12T19:52:06.279Z,23.70
2022-09-12T19:54:51.730Z,23.70
2022-09-12T19:57:37.285Z,23.70
2022-09-12T20:00:22.813Z,23.60
2022-09-12T20:03:08.656Z,23.60
2022-09-12T20:05:54.237Z,23.50
2022-09-12T20:08:42.240Z,23.50
2022-09-12T20:11:27.731Z,23.50
2022-09-12T20:14:13.177Z,23.40
2022-09-12T20:16:58.616Z,23.40
2022-09-12T20:19:44.042Z,23.40
2022-09-12T20:22:29.575Z,23.40
2022-09-12T20:25:15.012Z,23.40
2022-09-12T20:28:00.590Z,23.40
2022-09-12T20:30:46.000Z,23.40
2022-09-12T20:33:31.998Z,23.40
2022-09-12T20:36:19.819Z,23.40
2022-09-12T20:39:05.259Z,23.40
2022-09-12T20:41:50.942Z,23.30
2022-09-12T20:44:36.736Z,23.20
2022-09-12T20:47:22.192Z,23.10
2022-09-12T20:50:08.184Z,23.00
2022-09-12T20:52:53.587Z,23.10
2022-09-12T20:55:39.172Z,23.00
2022-09-12T20:58:24.729Z,23.00
2022-09-12T21:01:12.176Z,23.00
2022-09-12T21:03:58.975Z,23.00
2022-09-12T21:06:44.844Z,23.00
2022-09-12T21:09:30.955Z,22.90
2022-09-12T21:12:16.719Z,22.80
2022-09-12T21:15:02.077Z,22.80
2022-09-12T21:17:47.602Z,22.80
2022-09-12T21:20:33.628Z,22.90
2022-09-12T21:23:19.256Z,22.80
2022-09-12T21:26:05.732Z,22.90
2022-09-12T21:28:51.307Z,22.90
2022-09-12T21:31:37.081Z,22.80
2022-09-12T21:34:22.861Z,22.90
2022-09-12T21:37:08.164Z,22.90
2022-09-12T21:39:54.111Z,22.90
2022-09-12T21:42:39.441Z,22.80
2022-09-12T21:45:25.020Z,22.90
2022-09-12T21:48:11.030Z,23.00
2022-09-12T21:50:56.552Z,22.90
2022-09-12T21:53:42.271Z,22.80
2022-09-12T21:56:27.708Z,22.80
2022-09-12T21:59:13.220Z,22.80
2022-09-12T22:01:58.837Z,22.60
2022-09-12T22:04:44.292Z,22.70
2022-09-12T22:07:30.164Z,22.70
2022-09-12T22:10:16.103Z,22.60
2022-09-12T22:13:02.584Z,22.50
2022-09-12T22:15:52.991Z,22.50
2022-09-12T22:18:39.026Z,22.60
2022-09-12T22:21:24.880Z,22.40
2022-09-12T22:24:28.413Z,22.50
2022-09-12T22:27:14.376Z,22.50
2022-09-12T22:29:59.796Z,22.50
2022-09-12T22:32:45.488Z,22.40
2022-09-12T22:35:31.176Z,22.40
2022-09-12T22:38:16.689Z,22.30
2022-09-12T22:41:07.519Z,22.40
2022-09-12T22:43:53.369Z,22.30
2022-09-12T22:46:39.224Z,22.40
2022-09-12T22:49:25.069Z,22.40
2022-09-12T22:52:10.528Z,22.40
2022-09-12T22:54:56.065Z,22.50
2022-09-12T22:57:41.581Z,22.50
2022-09-12T23:00:27.997Z,22.40
2022-09-12T23:03:13.431Z,22.20
2022-09-12T23:05:59.191Z,22.20
2022-09-12T23:08:45.363Z,22.10
2022-09-12T23:11:31.009Z,22.10
2022-09-12T23:14:16.585Z,22.10
2022-09-12T23:17:02.020Z,22.10
2022-09-12T23:19:47.442Z,22.00
2022-09-12T23:22:32.961Z,22.00
2022-09-12T23:25:18.904Z,21.90
2022-09-12T23:28:04.591Z,21.90
2022-09-12T23:30:55.095Z,21.80
2022-09-12T23:33:40.633Z,21.80
2022-09-12T23:36:26.950Z,21.90
2022-09-12T23:39:12.423Z,21.90
2022-09-12T23:41:58.101Z,21.90
2022-09-12T23:44:43.725Z,22.00
2022-09-12T23:47:29.248Z,21.90
2022-09-12T23:50:14.679Z,21.80
2022-09-12T23:53:00.333Z,21.80
2022-09-12T23:55:45.936Z,23.10
2022-09-12T23:58:31.658Z,21.90
